Time;durP1;ratioP1;P1;durP2;ratioP2;P2;SDS_P1;SDS_P2;PMS_P1;PMS_P2;Temp;Humidity;BMP_temperature;BMP_pressure;BME280_temperature;BME280_humidity;BME280_pressure;Samples;Min_cycle;Max_cycle;Signal;HPM_P1;HPM_P2
2020/12/15 00:01:55;;;;;;;8.70;5.32;;;12.80;81.60;;;;;;5094804;28;20472;-76
2020/12/15 00:04:21;;;;;;;12.85;6.97;;;12.80;81.70;;;;;;5094038;28;20032;-77
2020/12/15 00:06:47;;;;;;;6.82;4.35;;;12.80;81.60;;;;;;5094756;28;20373;-77
2020/12/15 00:09:12;;;;;;;11.07;7.03;;;12.80;81.50;;;;;;5094625;28;20059;-77
2020/12/15 00:11:38;;;;;;;13.75;6.80;;;12.80;81.40;;;;;;5093806;28;20078;-77
2020/12/15 00:14:04;;;;;;;12.43;5.68;;;12.90;81.40;;;;;;5093834;28;20031;-77
2020/12/15 00:16:29;;;;;;;11.35;6.97;;;12.80;81.40;;;;;;5094680;28;20498;-77
2020/12/15 00:18:55;;;;;;;7.40;4.65;;;12.90;81.30;;;;;;5093844;28;20467;-77
2020/12/15 00:21:21;;;;;;;11.35;5.72;;;12.90;81.40;;;;;;5094766;28;20035;-76
2020/12/15 00:23:52;;;;;;;11.02;6.72;;;12.80;81.30;;;;;;5093963;28;20052;-77
2020/12/15 00:26:18;;;;;;;7.45;5.15;;;12.80;81.30;;;;;;5093711;28;20032;-77
2020/12/15 00:28:45;;;;;;;12.55;6.57;;;12.80;81.30;;;;;;5094471;28;20052;-76
2020/12/15 00:31:10;;;;;;;11.70;7.45;;;12.80;81.30;;;;;;5093667;28;20028;-77
2020/12/15 00:33:36;;;;;;;8.77;5.47;;;12.90;81.30;;;;;;5094177;28;20494;-77
2020/12/15 00:36:03;;;;;;;14.27;6.97;;;12.80;81.20;;;;;;5094319;28;20054;-77
2020/12/15 00:38:29;;;;;;;7.28;4.82;;;12.80;81.30;;;;;;5093396;28;20053;-77
2020/12/15 00:40:54;;;;;;;13.38;6.25;;;12.80;81.30;;;;;;5094229;28;20032;-77
2020/12/15 00:43:20;;;;;;;10.68;4.90;;;12.90;81.40;;;;;;5094090;28;20036;-76
2020/12/15 00:45:46;;;;;;;12.23;5.88;;;12.80;81.30;;;;;;5093210;28;20036;-76
2020/12/15 00:48:16;;;;;;;11.38;5.18;;;12.80;81.20;;;;;;5092885;28;20032;-76
2020/12/15 00:50:42;;;;;;;5.75;4.65;;;12.80;81.20;;;;;;5092502;28;20035;-77
2020/12/15 00:53:07;;;;;;;11.75;6.03;;;12.80;81.30;;;;;;5093202;28;20035;-77
2020/12/15 00:55:33;;;;;;;9.50;4.97;;;12.80;81.20;;;;;;5092527;28;20035;-77
2020/12/15 00:57:59;;;;;;;10.98;7.00;;;12.80;81.20;;;;;;5092383;28;20031;-77
2020/12/15 01:00:25;;;;;;;11.63;5.78;;;12.80;81.20;;;;;;5093185;28;20027;-77
2020/12/15 01:02:50;;;;;;;8.80;6.03;;;12.80;81.20;;;;;;5093455;28;20032;-77
2020/12/15 01:05:16;;;;;;;9.48;5.55;;;12.80;81.20;;;;;;5093551;28;20031;-76
2020/12/15 01:07:45;;;;;;;9.23;6.30;;;12.80;81.20;;;;;;5091636;28;20476;-77
2020/12/15 01:10:11;;;;;;;6.40;4.53;;;12.80;81.30;;;;;;5093713;28;20035;-77
2020/12/15 01:12:42;;;;;;;9.35;5.78;;;12.80;81.20;;;;;;5092481;28;20031;-76
2020/12/15 01:15:08;;;;;;;6.05;3.53;;;12.80;81.10;;;;;;5091582;28;20028;-76
2020/12/15 01:17:34;;;;;;;10.63;5.43;;;12.80;81.10;;;;;;5092317;28;20031;-77
2020/12/15 01:20:00;;;;;;;10.73;5.57;;;12.80;81.10;;;;;;5092096;28;20429;-76
2020/12/15 01:22:25;;;;;;;7.53;5.00;;;12.80;81.20;;;;;;5092472;28;20051;-76
2020/12/15 01:24:51;;;;;;;8.70;4.90;;;12.70;81.20;;;;;;5095499;28;20378;-76
2020/12/15 01:27:36;;;;;;;10.30;6.38;;;12.70;81.10;;;;;;5098131;28;20028;-77
2020/12/15 01:30:09;;;;;;;5.18;3.33;;;12.70;81.30;;;;;;5099168;28;20402;-77
2020/12/15 01:32:57;;;;;;;9.25;5.28;;;12.70;81.30;;;;;;5080391;28;20109;-77
2020/12/15 01:35:42;;;;;;;9.70;5.57;;;12.70;81.40;;;;;;5098123;28;20487;-76
2020/12/15 01:38:07;;;;;;;8.57;3.78;;;12.60;81.40;;;;;;5100285;28;20039;-77
2020/12/15 01:40:33;;;;;;;7.30;3.42;;;12.60;81.50;;;;;;5098956;28;20020;-76
2020/12/15 01:42:59;;;;;;;5.45;3.97;;;12.60;81.60;;;;;;5097918;28;20040;-76
2020/12/15 01:45:26;;;;;;;9.27;5.85;;;12.60;81.60;;;;;;5098726;28;20081;-77
2020/12/15 01:47:53;;;;;;;7.95;5.32;;;12.70;81.80;;;;;;5099942;28;20475;-77
2020/12/15 01:50:20;;;;;;;11.45;6.57;;;12.60;81.80;;;;;;5098239;28;20036;-77
2020/12/15 01:52:46;;;;;;;7.97;4.57;;;12.60;81.80;;;;;;5100054;28;20440;-76
2020/12/15 01:55:16;;;;;;;9.00;5.20;;;12.60;81.80;;;;;;5100037;28;20054;-77
2020/12/15 01:57:55;;;;;;;9.02;4.65;;;12.70;81.80;;;;;;5098318;28;20020;-77
2020/12/15 02:00:29;;;;;;;9.60;5.18;;;12.60;81.60;;;;;;5098685;28;20059;-77
2020/12/15 02:03:09;;;;;;;12.45;5.82;;;12.70;81.70;;;;;;5097832;28;20040;-75
2020/12/15 02:05:54;;;;;;;12.13;5.40;;;12.70;81.60;;;;;;5099628;28;20032;-76
2020/12/15 02:08:20;;;;;;;10.38;5.53;;;12.70;81.50;;;;;;5098405;28;20043;-76
2020/12/15 02:10:46;;;;;;;10.02;6.00;;;12.70;81.60;;;;;;5097812;28;20476;-77
2020/12/15 02:13:22;;;;;;;9.80;6.07;;;12.70;81.60;;;;;;5099669;28;20542;-76
2020/12/15 02:15:49;;;;;;;13.52;5.10;;;12.70;81.70;;;;;;5099933;28;20031;-76
2020/12/15 02:18:15;;;;;;;6.88;4.38;;;12.70;81.60;;;;;;5097893;28;20089;-76
2020/12/15 02:20:45;;;;;;;10.55;5.85;;;12.80;81.60;;;;;;5099602;28;20465;-77
2020/12/15 02:23:19;;;;;;;11.25;5.63;;;12.80;81.60;;;;;;5098216;28;20105;-77
2020/12/15 02:25:51;;;;;;;12.27;5.03;;;12.80;81.50;;;;;;5097763;28;20024;-76
2020/12/15 02:28:17;;;;;;;12.75;6.28;;;12.80;81.40;;;;;;5098560;28;20105;-76
2020/12/15 02:30:44;;;;;;;13.43;5.65;;;12.80;81.40;;;;;;5097555;28;20023;-77
2020/12/15 02:33:21;;;;;;;10.85;5.53;;;12.80;81.40;;;;;;5098331;28;20031;-76
2020/12/15 02:35:47;;;;;;;8.85;4.93;;;12.80;81.30;;;;;;5098781;28;20030;-77
2020/12/15 02:38:14;;;;;;;9.23;5.53;;;12.80;81.30;;;;;;5093644;28;20028;-76
2020/12/15 02:40:40;;;;;;;10.38;5.03;;;12.80;81.30;;;;;;5095113;28;20024;-77
2020/12/15 02:43:09;;;;;;;8.60;4.65;;;12.80;81.20;;;;;;5096272;28;20399;-77
2020/12/15 02:45:36;;;;;;;10.75;5.22;;;12.80;81.10;;;;;;5094287;28;20028;-77
2020/12/15 02:48:05;;;;;;;11.85;5.30;;;12.80;81.00;;;;;;5094896;28;20032;-77
2020/12/15 02:50:34;;;;;;;11.88;4.97;;;12.80;81.00;;;;;;5094853;28;20027;-77
2020/12/15 02:53:20;;;;;;;10.05;4.93;;;12.80;81.00;;;;;;5095020;28;20046;-77
2020/12/15 02:55:48;;;;;;;8.30;4.32;;;12.80;80.90;;;;;;5094725;28;20077;-77
2020/12/15 02:58:21;;;;;;;10.73;4.55;;;12.80;80.90;;;;;;5094838;28;20123;-76
2020/12/15 03:00:50;;;;;;;7.68;3.95;;;12.80;81.00;;;;;;5093990;28;20024;-76
2020/12/15 03:03:17;;;;;;;7.38;4.82;;;12.70;80.90;;;;;;5094588;28;20047;-77
2020/12/15 03:06:00;;;;;;;3.58;2.38;;;12.70;80.90;;;;;;5095400;28;20024;-77
2020/12/15 03:08:26;;;;;;;10.02;4.95;;;12.70;80.90;;;;;;5094647;28;20077;-77
2020/12/15 03:10:52;;;;;;;7.57;3.55;;;12.70;81.00;;;;;;5094482;28;20027;-77
2020/12/15 03:13:19;;;;;;;8.65;4.63;;;12.60;80.90;;;;;;5093709;28;20494;-76
2020/12/15 03:15:44;;;;;;;9.23;3.90;;;12.70;81.00;;;;;;5094507;28;20016;-77
2020/12/15 03:18:16;;;;;;;9.00;3.67;;;12.60;81.00;;;;;;5094465;28;20032;-77
2020/12/15 03:20:47;;;;;;;10.23;4.40;;;12.60;81.00;;;;;;5093571;28;20479;-76
2020/12/15 03:23:18;;;;;;;8.98;5.45;;;12.60;81.00;;;;;;5094245;28;20044;-77
2020/12/15 03:25:44;;;;;;;12.40;5.38;;;12.60;81.00;;;;;;5094130;28;20024;-76
2020/12/15 03:28:10;;;;;;;7.18;4.90;;;12.60;81.00;;;;;;5093493;28;20077;-76
2020/12/15 03:30:40;;;;;;;5.65;3.63;;;12.60;80.90;;;;;;5094286;28;20409;-76
2020/12/15 03:33:06;;;;;;;10.15;4.63;;;12.60;80.90;;;;;;5093982;28;20115;-76
2020/12/15 03:35:32;;;;;;;6.15;3.33;;;12.60;80.90;;;;;;5093262;28;20070;-76
2020/12/15 03:38:02;;;;;;;7.90;4.43;;;12.60;80.90;;;;;;5094150;28;20072;-77
2020/12/15 03:40:37;;;;;;;9.07;4.10;;;12.60;81.00;;;;;;5093966;28;20097;-77
2020/12/15 03:43:20;;;;;;;12.20;4.57;;;12.60;81.00;;;;;;5094422;28;20093;-76
2020/12/15 03:46:02;;;;;;;10.40;5.00;;;12.50;81.00;;;;;;5094019;28;20070;-77
2020/12/15 03:48:29;;;;;;;17.75;5.40;;;12.50;81.00;;;;;;5091774;28;20039;-75
2020/12/15 03:50:55;;;;;;;8.60;3.97;;;12.50;81.10;;;;;;5093793;28;20028;-76
2020/12/15 03:53:31;;;;;;;5.50;3.38;;;12.50;81.10;;;;;;5093755;28;20032;-76
2020/12/15 03:55:57;;;;;;;6.82;3.60;;;12.50;81.10;;;;;;5093266;28;20394;-76
2020/12/15 03:58:23;;;;;;;7.78;4.68;;;12.50;81.20;;;;;;5093491;28;20535;-77
2020/12/15 04:01:00;;;;;;;4.95;3.13;;;12.50;81.30;;;;;;5094268;28;20036;-75
2020/12/15 04:03:27;;;;;;;4.97;3.70;;;12.50;81.30;;;;;;5092535;28;20564;-77
2020/12/15 04:05:58;;;;;;;6.40;3.97;;;12.50;81.40;;;;;;5093495;28;20471;-76
2020/12/15 04:08:26;;;;;;;6.75;4.20;;;12.50;81.30;;;;;;5093534;28;20028;-76
2020/12/15 04:10:53;;;;;;;13.00;5.45;;;12.50;81.20;;;;;;5092458;28;20534;-77
2020/12/15 04:13:26;;;;;;;8.23;4.80;;;12.40;81.90;;;;;;5093416;28;20031;-77
2020/12/15 04:15:54;;;;;;;6.43;3.75;;;12.50;81.30;;;;;;5093166;28;20323;-77
2020/12/15 04:18:26;;;;;;;8.45;4.70;;;12.40;81.30;;;;;;5092645;28;20066;-77
2020/12/15 04:20:53;;;;;;;6.53;3.33;;;12.40;81.30;;;;;;5093315;28;20395;-76
2020/12/15 04:23:19;;;;;;;9.27;4.53;;;12.40;81.30;;;;;;5092007;28;20044;-76
2020/12/15 04:25:55;;;;;;;6.90;4.15;;;12.50;81.40;;;;;;5093132;28;20021;-76
2020/12/15 04:28:27;;;;;;;9.43;4.50;;;12.40;81.40;;;;;;5093484;28;20391;-76
2020/12/15 04:30:53;;;;;;;6.68;4.05;;;12.40;81.40;;;;;;5092248;28;20085;-76
2020/12/15 04:33:20;;;;;;;3.97;1.50;;;12.40;81.40;;;;;;5092935;28;20077;-76
2020/12/15 04:35:50;;;;;;;8.10;4.28;;;12.30;81.50;;;;;;5092923;28;20060;-76
2020/12/15 04:38:17;;;;;;;1.98;1.48;;;12.30;81.60;;;;;;5092021;28;20031;-77
2020/12/15 04:40:44;;;;;;;5.47;3.17;;;12.30;81.80;;;;;;5092845;28;20028;-77
2020/12/15 04:43:15;;;;;;;7.63;4.78;;;12.30;81.90;;;;;;5092642;28;20059;-76
2020/12/15 04:45:43;;;;;;;7.55;4.57;;;12.20;82.00;;;;;;5091945;28;20026;-76
2020/12/15 04:48:09;;;;;;;15.23;5.22;;;12.20;82.10;;;;;;5093985;28;20027;-77
2020/12/15 04:50:58;;;;;;;8.57;4.55;;;12.20;82.30;;;;;;5094183;28;20061;-77
2020/12/15 04:53:27;;;;;;;6.28;3.30;;;12.10;82.30;;;;;;5092104;28;20386;-76
2020/12/15 04:56:26;;;;;;;4.80;2.70;;;12.20;82.40;;;;;;5094014;28;20132;-77
2020/12/15 04:58:57;;;;;;;6.97;4.15;;;12.10;82.50;;;;;;5091551;28;20031;-75
2020/12/15 05:01:24;;;;;;;8.68;4.60;;;12.10;82.60;;;;;;5092298;28;20066;-75
2020/12/15 05:04:09;;;;;;;7.07;4.93;;;12.10;82.70;;;;;;5092285;28;20044;-77
2020/12/15 05:06:43;;;;;;;7.75;2.20;;;12.10;82.80;;;;;;5092001;28;20106;-77
2020/12/15 05:09:10;;;;;;;4.53;2.85;;;12.00;82.80;;;;;;5092534;28;20394;-77
2020/12/15 05:11:35;;;;;;;7.35;3.00;;;12.00;82.90;;;;;;5092492;28;20027;-78
2020/12/15 05:14:19;;;;;;;7.40;3.75;;;12.10;83.00;;;;;;5091940;28;20108;-78
2020/12/15 05:16:45;;;;;;;7.78;4.72;;;12.00;82.90;;;;;;5092337;28;20408;-78
2020/12/15 05:19:44;;;;;;;5.40;3.17;;;12.00;83.00;;;;;;5089741;28;20047;-78
2020/12/15 05:22:13;;;;;;;9.52;4.28;;;12.00;83.00;;;;;;5091975;28;20032;-75
2020/12/15 05:24:48;;;;;;;6.23;3.33;;;12.00;83.00;;;;;;5092343;28;20078;-74
2020/12/15 05:27:18;;;;;;;5.85;3.53;;;12.00;83.10;;;;;;5091571;28;20119;-76
2020/12/15 05:30:11;;;;;;;7.00;4.05;;;12.00;83.00;;;;;;5092172;28;20032;-76
2020/12/15 05:33:16;;;;;;;10.85;5.50;;;12.00;83.00;;;;;;5038496;28;20424;-76
2020/12/15 05:36:21;;;;;;;12.73;5.50;;;12.00;83.00;;;;;;5031250;28;20044;-76
2020/12/15 05:39:05;;;;;;;9.40;5.10;;;12.10;83.00;;;;;;5087609;28;20444;-76
2020/12/15 05:41:39;;;;;;;10.60;6.20;;;12.00;83.00;;;;;;5090415;28;20036;-77
2020/12/15 05:44:08;;;;;;;10.30;4.28;;;12.00;83.10;;;;;;5089701;28;20534;-76
2020/12/15 05:46:45;;;;;;;6.28;4.20;;;12.00;83.10;;;;;;5091884;28;20497;-76
2020/12/15 05:49:11;;;;;;;9.70;5.20;;;12.00;83.10;;;;;;5091341;28;20398;-76
2020/12/15 05:51:38;;;;;;;7.32;4.75;;;12.00;83.10;;;;;;5092513;28;20043;-76
2020/12/15 05:54:08;;;;;;;5.05;2.92;;;12.00;83.10;;;;;;5093278;28;20035;-76
2020/12/15 05:56:35;;;;;;;5.13;2.88;;;12.00;83.10;;;;;;5092522;28;20056;-76
2020/12/15 05:59:18;;;;;;;10.32;5.32;;;12.00;83.10;;;;;;5093225;28;20028;-76
2020/12/15 06:01:50;;;;;;;6.70;4.38;;;12.00;83.20;;;;;;5092472;28;20031;-75
2020/12/15 06:04:17;;;;;;;8.03;4.20;;;12.00;83.10;;;;;;5092940;28;20082;-76
2020/12/15 06:06:44;;;;;;;4.75;2.78;;;12.00;83.20;;;;;;5093295;28;20331;-76
2020/12/15 06:09:17;;;;;;;8.80;5.25;;;12.00;83.20;;;;;;5092375;28;20105;-83
2020/12/15 06:11:45;;;;;;;9.57;5.68;;;12.10;83.20;;;;;;5093811;28;20025;-79
2020/12/15 06:14:12;;;;;;;9.00;5.78;;;12.10;83.20;;;;;;5096377;28;20043;-68
2020/12/15 06:16:39;;;;;;;8.82;5.53;;;12.10;83.10;;;;;;5096193;28;20020;-76
2020/12/15 06:19:09;;;;;;;6.07;2.88;;;12.10;83.00;;;;;;5096913;28;20028;-73
2020/12/15 06:21:37;;;;;;;9.45;6.30;;;12.10;83.00;;;;;;5096752;28;20024;-75
2020/12/15 06:24:07;;;;;;;9.38;5.90;;;12.10;82.90;;;;;;5095612;28;20062;-77
2020/12/15 06:26:34;;;;;;;12.23;5.80;;;12.10;82.90;;;;;;5096477;28;20039;-75
2020/12/15 06:29:05;;;;;;;10.05;5.93;;;12.10;82.90;;;;;;5096455;28;20032;-77
2020/12/15 06:31:32;;;;;;;9.30;5.32;;;12.10;82.90;;;;;;5095749;28;20024;-76
2020/12/15 06:34:00;;;;;;;6.47;4.18;;;12.10;82.80;;;;;;5096569;28;20103;-77
2020/12/15 06:36:28;;;;;;;10.40;4.82;;;12.10;82.70;;;;;;5096098;28;20502;-75
2020/12/15 06:38:54;;;;;;;9.57;6.50;;;12.10;82.80;;;;;;5094105;28;20468;-77
2020/12/15 06:41:22;;;;;;;6.85;4.88;;;12.00;82.90;;;;;;5095200;28;20120;-77
2020/12/15 06:43:47;;;;;;;8.52;5.63;;;12.00;82.90;;;;;;5094994;28;20044;-75
2020/12/15 06:46:13;;;;;;;1.83;1.35;;;12.00;83.00;;;;;;5094115;28;20031;-79
2020/12/15 06:48:43;;;;;;;8.35;5.28;;;12.00;83.00;;;;;;5094773;28;20067;-78
2020/12/15 06:51:08;;;;;;;7.00;3.63;;;12.00;83.10;;;;;;5094017;28;20375;-81
2020/12/15 06:53:34;;;;;;;8.63;5.60;;;12.00;83.20;;;;;;5095990;28;20020;-89
2020/12/15 06:56:04;;;;;;;13.05;6.68;;;12.00;83.20;;;;;;5096596;28;20020;-87
2020/12/15 06:58:30;;;;;;;10.90;6.10;;;12.00;83.20;;;;;;5096157;28;20047;-85
2020/12/15 07:00:58;;;;;;;7.72;4.65;;;12.00;83.20;;;;;;5096584;28;20048;-76
2020/12/15 07:03:35;;;;;;;16.95;6.32;;;12.00;83.20;;;;;;5090931;28;20036;-78
2020/12/15 07:06:16;;;;;;;9.93;5.35;;;11.90;83.20;;;;;;5094536;28;20035;-85
2020/12/15 07:08:42;;;;;;;10.60;5.95;;;11.90;83.20;;;;;;5094852;28;20031;-79
2020/12/15 07:11:08;;;;;;;13.00;6.53;;;12.00;83.30;;;;;;5094624;28;20024;-80
2020/12/15 07:13:34;;;;;;;5.70;3.28;;;12.00;83.40;;;;;;5093511;28;20039;-73
2020/12/15 07:16:00;;;;;;;2.13;1.75;;;12.00;83.30;;;;;;5094580;28;20073;-77
2020/12/15 07:18:25;;;;;;;7.70;4.32;;;11.90;83.30;;;;;;5094103;28;20028;-76
2020/12/15 07:20:51;;;;;;;8.63;3.25;;;11.90;83.40;;;;;;5093581;28;20154;-77
2020/12/15 07:23:17;;;;;;;3.25;2.15;;;11.90;83.40;;;;;;5093651;28;20051;-77
2020/12/15 07:25:44;;;;;;;7.95;4.68;;;11.90;83.50;;;;;;5094007;28;20052;-78
2020/12/15 07:28:10;;;;;;;2.50;1.42;;;11.90;83.60;;;;;;5091296;28;20162;-77
2020/12/15 07:30:40;;;;;;;10.73;6.05;;;11.90;83.60;;;;;;5095547;28;20073;-76
2020/12/15 07:33:05;;;;;;;7.55;3.75;;;11.90;83.80;;;;;;5094667;28;20024;-76
2020/12/15 07:35:33;;;;;;;12.38;6.80;;;11.90;83.70;;;;;;5094001;28;20409;-76
2020/12/15 07:38:02;;;;;;;10.15;5.38;;;11.90;83.80;;;;;;5093807;28;20033;-76
2020/12/15 07:40:30;;;;;;;10.85;6.50;;;11.90;83.80;;;;;;5093203;28;20032;-77
2020/12/15 07:42:57;;;;;;;15.50;7.50;;;11.90;83.90;;;;;;5093568;28;20540;-76
2020/12/15 07:45:24;;;;;;;6.88;3.13;;;11.90;83.90;;;;;;5091257;28;20028;-76
2020/12/15 07:47:51;;;;;;;10.93;6.75;;;11.90;83.80;;;;;;5092860;28;20548;-77
2020/12/15 07:50:21;;;;;;;10.68;5.90;;;12.00;83.90;;;;;;5093388;28;20036;-77
2020/12/15 07:52:47;;;;;;;11.65;7.22;;;12.00;84.00;;;;;;5093547;28;20464;-76
2020/12/15 07:55:14;;;;;;;11.02;6.63;;;11.90;83.80;;;;;;5093725;28;20024;-79
2020/12/15 07:57:41;;;;;;;10.05;4.72;;;11.90;83.90;;;;;;5094871;28;20074;-81
2020/12/15 08:00:15;;;;;;;10.27;6.05;;;12.00;83.90;;;;;;5094912;28;20063;-82
2020/12/15 08:02:45;;;;;;;12.60;5.97;;;12.00;83.90;;;;;;5094415;28;20060;-69
2020/12/15 08:05:23;;;;;;;13.70;7.25;;;12.00;83.80;;;;;;5094511;28;20031;-82
2020/12/15 08:07:54;;;;;;;10.30;6.60;;;12.00;83.80;;;;;;5092201;28;20044;-81
2020/12/15 08:10:32;;;;;;;10.88;6.68;;;12.00;83.80;;;;;;5093661;28;20085;-83
2020/12/15 08:13:00;;;;;;;11.05;6.43;;;12.10;84.00;;;;;;5093087;28;20085;-82
2020/12/15 08:15:35;;;;;;;16.95;7.82;;;12.00;83.60;;;;;;5085580;28;20020;-80
2020/12/15 08:18:02;;;;;;;14.98;8.20;;;12.10;83.70;;;;;;5094479;28;20422;-75
2020/12/15 08:20:30;;;;;;;13.52;6.93;;;12.00;83.70;;;;;;5094724;28;20048;-73
2020/12/15 08:23:10;;;;;;;8.00;4.28;;;12.00;83.80;;;;;;5093949;28;20403;-86
2020/12/15 08:25:38;;;;;;;8.90;3.88;;;12.10;83.80;;;;;;5094510;28;20028;-84
2020/12/15 08:28:08;;;;;;;14.68;7.32;;;12.10;83.60;;;;;;5094873;28;20032;-84
2020/12/15 08:30:34;;;;;;;16.33;7.50;;;12.10;83.70;;;;;;5093587;28;20539;-82
2020/12/15 08:33:00;;;;;;;13.50;7.28;;;12.10;83.80;;;;;;5094395;28;20161;-79
2020/12/15 08:35:27;;;;;;;16.80;8.70;;;12.10;83.80;;;;;;5093407;28;20028;-80
2020/12/15 08:37:56;;;;;;;15.40;8.27;;;12.10;83.90;;;;;;5093466;28;20025;-81
2020/12/15 08:40:22;;;;;;;10.88;6.22;;;12.10;84.00;;;;;;5094270;28;20032;-77
2020/12/15 08:42:48;;;;;;;14.27;6.68;;;12.10;83.80;;;;;;5094088;28;20032;-79
2020/12/15 08:45:16;;;;;;;17.58;7.55;;;12.10;83.80;;;;;;5093007;28;20383;-84
2020/12/15 08:47:50;;;;;;;20.65;9.00;;;12.10;83.80;;;;;;5092818;28;20102;-80
2020/12/15 08:50:16;;;;;;;17.83;7.75;;;12.10;84.00;;;;;;5091767;28;20032;-78
2020/12/15 08:52:43;;;;;;;18.73;9.20;;;12.20;83.90;;;;;;5091441;28;20024;-78
2020/12/15 08:55:09;;;;;;;13.52;8.13;;;12.10;83.90;;;;;;5092019;28;20028;-78
2020/12/15 08:57:36;;;;;;;16.52;8.32;;;12.20;83.80;;;;;;5091354;28;20024;-79
2020/12/15 09:00:29;;;;;;;17.00;8.70;;;12.20;83.80;;;;;;5092657;28;20107;-78
2020/12/15 09:03:07;;;;;;;11.02;5.97;;;12.20;83.80;;;;;;5090188;28;20040;-79
2020/12/15 09:05:43;;;;;;;8.10;4.25;;;12.20;83.60;;;;;;5093194;28;20055;-78
2020/12/15 09:08:09;;;;;;;12.18;6.13;;;12.20;83.60;;;;;;5093948;28;20032;-78
2020/12/15 09:10:35;;;;;;;13.65;6.30;;;12.20;83.50;;;;;;5093723;28;20034;-79
2020/12/15 09:13:01;;;;;;;16.10;7.70;;;12.20;83.60;;;;;;5092938;28;20364;-79
2020/12/15 09:15:26;;;;;;;23.27;8.73;;;12.20;83.60;;;;;;5093441;28;20435;-78
2020/12/15 09:17:52;;;;;;;13.38;7.90;;;12.20;83.60;;;;;;5093675;28;20146;-80
2020/12/15 09:20:27;;;;;;;19.95;9.65;;;12.20;83.60;;;;;;5092951;28;20036;-78
2020/12/15 09:22:53;;;;;;;7.30;4.20;;;12.30;83.60;;;;;;5093311;28;20048;-78
2020/12/15 09:25:19;;;;;;;9.70;4.43;;;12.30;83.40;;;;;;5093578;28;20535;-79
2020/12/15 09:27:46;;;;;;;19.42;8.07;;;12.30;83.40;;;;;;5092604;28;20020;-78
2020/12/15 09:30:19;;;;;;;17.20;8.70;;;12.20;83.50;;;;;;5093586;28;20067;-79
2020/12/15 09:32:45;;;;;;;15.82;6.72;;;12.30;83.60;;;;;;5093014;28;20020;-77
2020/12/15 09:35:12;;;;;;;16.10;7.75;;;12.30;83.50;;;;;;5093740;28;20520;-77
2020/12/15 09:37:39;;;;;;;12.98;6.72;;;12.30;83.60;;;;;;5093441;28;20514;-79
2020/12/15 09:40:09;;;;;;;16.25;7.60;;;12.20;83.60;;;;;;5092670;28;20036;-78
2020/12/15 09:42:43;;;;;;;15.60;8.77;;;12.20;83.70;;;;;;5093424;28;20028;-77
2020/12/15 09:45:08;;;;;;;12.40;6.80;;;12.30;83.80;;;;;;5093427;28;20043;-79
2020/12/15 09:47:40;;;;;;;13.05;4.72;;;12.30;83.70;;;;;;5096531;28;20032;-78
2020/12/15 09:50:06;;;;;;;16.70;8.52;;;12.20;83.70;;;;;;5097612;28;20024;-78
2020/12/15 09:52:31;;;;;;;11.77;6.43;;;12.30;83.70;;;;;;5097525;28;20097;-78
2020/12/15 09:54:57;;;;;;;14.27;8.45;;;12.20;83.60;;;;;;5096488;28;20383;-78
2020/12/15 09:57:23;;;;;;;16.02;8.63;;;12.30;83.80;;;;;;5097424;28;20357;-78
2020/12/15 09:59:48;;;;;;;18.20;6.63;;;12.30;83.90;;;;;;5097295;28;20479;-78
2020/12/15 10:02:14;;;;;;;10.90;5.32;;;12.30;83.90;;;;;;5096490;28;20487;-77
2020/12/15 10:04:39;;;;;;;12.05;6.78;;;12.30;83.80;;;;;;5097004;28;20043;-79
2020/12/15 10:07:05;;;;;;;19.30;6.53;;;12.30;83.80;;;;;;5097225;28;20024;-78
2020/12/15 10:09:31;;;;;;;14.13;7.13;;;12.30;83.70;;;;;;5096260;28;20032;-79
2020/12/15 10:11:56;;;;;;;22.80;7.70;;;12.30;83.80;;;;;;5097186;28;20524;-77
2020/12/15 10:14:22;;;;;;;9.50;5.38;;;12.30;83.90;;;;;;5096972;28;20024;-78
2020/12/15 10:16:47;;;;;;;15.45;6.82;;;12.30;83.90;;;;;;5096043;28;20456;-77
2020/12/15 10:19:13;;;;;;;15.50;8.57;;;12.30;83.90;;;;;;5096787;28;20039;-79
2020/12/15 10:21:39;;;;;;;18.13;7.90;;;12.30;83.90;;;;;;5096919;28;20032;-80
2020/12/15 10:24:04;;;;;;;17.33;7.78;;;12.30;84.00;;;;;;5095645;28;20101;-77
2020/12/15 10:26:30;;;;;;;17.85;8.05;;;12.30;84.00;;;;;;5096580;28;20036;-77
2020/12/15 10:28:56;;;;;;;12.77;6.55;;;12.30;84.00;;;;;;5096764;28;20032;-78
2020/12/15 10:31:22;;;;;;;17.48;7.82;;;12.30;84.00;;;;;;5096041;28;20194;-78
2020/12/15 10:33:48;;;;;;;16.30;7.28;;;12.40;84.00;;;;;;5096387;28;20499;-78
2020/12/15 10:36:16;;;;;;;14.02;6.63;;;12.40;84.10;;;;;;5095689;28;20119;-78
2020/12/15 10:38:43;;;;;;;15.32;7.95;;;12.30;84.00;;;;;;5096572;28;20043;-78
2020/12/15 10:41:09;;;;;;;13.63;7.05;;;12.30;84.10;;;;;;5096380;28;20024;-77
2020/12/15 10:43:35;;;;;;;15.52;7.25;;;12.30;84.10;;;;;;5095183;28;20043;-79
2020/12/15 10:46:01;;;;;;;15.85;7.55;;;12.30;84.20;;;;;;5096477;28;20028;-80
2020/12/15 10:48:27;;;;;;;8.90;4.53;;;12.30;84.20;;;;;;5092189;28;20034;-80
2020/12/15 10:50:53;;;;;;;14.80;7.10;;;12.40;84.20;;;;;;5098237;28;20060;-80
2020/12/15 10:53:18;;;;;;;11.57;6.15;;;12.40;84.10;;;;;;5096003;28;20103;-80
2020/12/15 10:55:48;;;;;;;21.85;7.22;;;12.30;84.10;;;;;;5096323;28;20035;-85
2020/12/15 10:58:14;;;;;;;13.23;7.13;;;12.30;84.20;;;;;;5095463;28;20032;-87
2020/12/15 11:00:39;;;;;;;17.13;8.52;;;12.40;84.30;;;;;;5096687;28;20071;-88
2020/12/15 11:03:05;;;;;;;15.82;7.88;;;12.40;84.30;;;;;;5096594;28;20085;-87
2020/12/15 11:05:30;;;;;;;11.80;6.35;;;12.30;84.20;;;;;;5096907;28;20024;-88
2020/12/15 11:07:56;;;;;;;13.88;8.38;;;12.40;84.30;;;;;;5096957;28;20093;-87
2020/12/15 11:10:22;;;;;;;13.32;7.30;;;12.40;84.30;;;;;;5096644;28;20501;-89
2020/12/15 11:12:47;;;;;;;16.40;5.78;;;12.40;84.40;;;;;;5096368;28;20024;-76
2020/12/15 11:15:13;;;;;;;16.10;8.18;;;12.40;84.30;;;;;;5095767;28;20054;-76
2020/12/15 11:17:39;;;;;;;14.88;7.75;;;12.50;84.40;;;;;;5095663;28;20035;-78
2020/12/15 11:20:05;;;;;;;9.43;3.30;;;12.50;84.30;;;;;;5095067;28;20039;-72
2020/12/15 11:22:31;;;;;;;10.95;5.68;;;12.50;84.10;;;;;;5094998;28;20069;-78
2020/12/15 11:24:57;;;;;;;10.15;4.82;;;12.50;84.70;;;;;;5095480;28;20119;-76
2020/12/15 11:27:22;;;;;;;16.50;6.95;;;12.50;84.00;;;;;;5094915;28;20487;-76
2020/12/15 11:29:48;;;;;;;9.77;3.55;;;12.50;84.00;;;;;;5095554;28;20497;-76
2020/12/15 11:32:14;;;;;;;19.90;7.50;;;12.50;84.10;;;;;;5095576;28;20024;-76
2020/12/15 11:34:39;;;;;;;8.10;4.57;;;12.50;84.30;;;;;;5094656;28;20501;-80
2020/12/15 11:37:09;;;;;;;14.23;7.65;;;12.40;84.20;;;;;;5095210;28;20431;-78
2020/12/15 11:39:36;;;;;;;18.40;7.55;;;12.40;84.30;;;;;;5095374;28;20055;-78
2020/12/15 11:42:08;;;;;;;14.00;6.70;;;12.40;84.40;;;;;;5094977;28;20126;-78
2020/12/15 11:44:35;;;;;;;13.95;7.78;;;12.40;84.40;;;;;;5095195;28;20123;-76
2020/12/15 11:47:00;;;;;;;5.95;3.90;;;12.40;84.50;;;;;;5094592;28;20032;-84
2020/12/15 11:49:27;;;;;;;11.98;6.57;;;12.50;84.50;;;;;;5096070;28;20498;-86
2020/12/15 11:51:54;;;;;;;14.20;7.63;;;12.40;84.50;;;;;;5096119;28;20035;-83
2020/12/15 11:54:20;;;;;;;13.23;5.90;;;12.40;84.70;;;;;;5095683;28;20087;-86
2020/12/15 11:56:46;;;;;;;13.02;5.80;;;12.40;84.70;;;;;;5095808;28;20063;-83
2020/12/15 11:59:13;;;;;;;13.93;6.00;;;12.40;84.70;;;;;;5096056;28;20085;-88
2020/12/15 12:01:40;;;;;;;12.48;7.72;;;12.50;84.80;;;;;;5092373;28;20528;-83
2020/12/15 12:04:06;;;;;;;8.55;4.68;;;12.40;84.80;;;;;;5100485;28;20051;-82
2020/12/15 12:06:34;;;;;;;11.93;4.88;;;12.50;84.90;;;;;;5097372;28;20030;-85
2020/12/15 12:09:02;;;;;;;11.20;5.47;;;12.50;85.00;;;;;;5091898;28;20455;-74
2020/12/15 12:11:29;;;;;;;10.05;5.30;;;12.40;85.00;;;;;;5093602;28;20055;-78
2020/12/15 12:13:57;;;;;;;13.40;5.80;;;12.40;85.10;;;;;;5093335;28;20054;-78
2020/12/15 12:16:24;;;;;;;15.38;6.78;;;12.40;85.80;;;;;;5104774;28;20104;-78
2020/12/15 12:18:51;;;;;;;11.55;5.47;;;12.40;85.20;;;;;;5112479;28;20031;-78
2020/12/15 12:21:16;;;;;;;11.43;5.78;;;12.40;85.40;;;;;;5096161;28;20028;-78
2020/12/15 12:23:42;;;;;;;9.13;5.18;;;12.40;85.40;;;;;;5091107;28;20048;-78
2020/12/15 12:26:08;;;;;;;12.13;5.75;;;12.40;85.40;;;;;;5094258;28;20464;-78
2020/12/15 12:28:36;;;;;;;11.70;6.68;;;12.40;85.40;;;;;;5092997;28;20483;-78
2020/12/15 12:31:05;;;;;;;11.35;6.05;;;12.40;85.60;;;;;;5093949;28;20020;-78
2020/12/15 12:33:32;;;;;;;13.30;6.15;;;12.40;85.50;;;;;;5093881;28;20028;-78
2020/12/15 12:36:00;;;;;;;9.75;4.25;;;12.40;85.50;;;;;;5093579;28;20048;-78
2020/12/15 12:38:25;;;;;;;11.38;5.95;;;12.40;85.50;;;;;;5094170;28;20028;-78
2020/12/15 12:40:52;;;;;;;15.18;5.90;;;12.40;85.50;;;;;;5094094;28;20162;-78
2020/12/15 12:43:18;;;;;;;10.27;5.68;;;12.40;85.60;;;;;;5092839;28;20044;-78
2020/12/15 12:45:45;;;;;;;13.82;6.90;;;12.40;85.60;;;;;;5093876;28;20078;-81
2020/12/15 12:48:16;;;;;;;9.02;4.43;;;12.50;85.60;;;;;;5094173;28;20168;-80
2020/12/15 12:50:44;;;;;;;7.00;3.03;;;12.40;85.50;;;;;;5092078;28;20039;-79